sensor_id;sensor_type;location;lat;lon;timestamp;P1;durP1;ratioP1;P2;durP2;ratioP2
1591;SDS011;789;51.612;7.510;2024-03-02T00:00:30;3.37;;;2.73;;
1591;SDS011;789;51.612;7.510;2024-03-02T00:02:57;3.60;;;3.30;;
1591;SDS011;789;51.612;7.510;2024-03-02T00:05:24;3.40;;;2.60;;
1591;SDS011;789;51.612;7.510;2024-03-02T00:07:53;3.10;;;2.67;;
1591;SDS011;789;51.612;7.510;2024-03-02T00:10:24;4.13;;;2.60;;
1591;SDS011;789;51.612;7.510;2024-03-02T00:12:54;3.03;;;2.73;;
1591;SDS011;789;51.612;7.510;2024-03-02T00:15:28;3.60;;;2.40;;
1591;SDS011;789;51.612;7.510;2024-03-02T00:18:06;2.87;;;2.50;;
1591;SDS011;789;51.612;7.510;2024-03-02T00:20:33;2.60;;;2.40;;
1591;SDS011;789;51.612;7.510;2024-03-02T00:23:02;2.80;;;2.53;;
1591;SDS011;789;51.612;7.510;2024-03-02T00:25:36;3.30;;;2.43;;
1591;SDS011;789;51.612;7.510;2024-03-02T00:28:05;4.13;;;2.57;;
1591;SDS011;789;51.612;7.510;2024-03-02T00:30:45;3.07;;;2.10;;
1591;SDS011;789;51.612;7.510;2024-03-02T00:33:19;2.90;;;2.07;;
1591;SDS011;789;51.612;7.510;2024-03-02T00:35:46;2.80;;;2.27;;
1591;SDS011;789;51.612;7.510;2024-03-02T00:38:14;2.27;;;2.07;;
1591;SDS011;789;51.612;7.510;2024-03-02T00:40:43;2.27;;;1.97;;
1591;SDS011;789;51.612;7.510;2024-03-02T00:43:18;3.07;;;2.03;;
1591;SDS011;789;51.612;7.510;2024-03-02T00:46:11;2.60;;;2.20;;
1591;SDS011;789;51.612;7.510;2024-03-02T00:48:39;2.57;;;2.17;;
1591;SDS011;789;51.612;7.510;2024-03-02T00:51:11;2.47;;;2.17;;
1591;SDS011;789;51.612;7.510;2024-03-02T00:53:38;3.20;;;1.90;;
1591;SDS011;789;51.612;7.510;2024-03-02T00:56:06;3.30;;;2.40;;
1591;SDS011;789;51.612;7.510;2024-03-02T00:58:39;2.50;;;2.20;;
1591;SDS011;789;51.612;7.510;2024-03-02T01:01:06;3.30;;;2.23;;
1591;SDS011;789;51.612;7.510;2024-03-02T01:03:33;2.10;;;2.00;;
1591;SDS011;789;51.612;7.510;2024-03-02T01:06:00;3.13;;;2.50;;
1591;SDS011;789;51.612;7.510;2024-03-02T01:08:27;2.90;;;2.00;;
1591;SDS011;789;51.612;7.510;2024-03-02T01:10:54;2.40;;;1.90;;
1591;SDS011;789;51.612;7.510;2024-03-02T01:13:22;3.80;;;1.90;;
1591;SDS011;789;51.612;7.510;2024-03-02T01:15:49;5.50;;;2.20;;
1591;SDS011;789;51.612;7.510;2024-03-02T01:18:17;3.83;;;2.00;;
1591;SDS011;789;51.612;7.510;2024-03-02T01:20:43;1.77;;;1.53;;
1591;SDS011;789;51.612;7.510;2024-03-02T01:23:10;2.13;;;1.73;;
1591;SDS011;789;51.612;7.510;2024-03-02T01:25:37;3.67;;;2.20;;
1591;SDS011;789;51.612;7.510;2024-03-02T01:28:05;2.37;;;2.00;;
1591;SDS011;789;51.612;7.510;2024-03-02T01:30:33;2.23;;;1.50;;
1591;SDS011;789;51.612;7.510;2024-03-02T01:33:00;3.83;;;2.00;;
1591;SDS011;789;51.612;7.510;2024-03-02T01:35:27;1.90;;;1.70;;
1591;SDS011;789;51.612;7.510;2024-03-02T01:37:54;2.73;;;1.87;;
1591;SDS011;789;51.612;7.510;2024-03-02T01:40:21;3.87;;;1.90;;
1591;SDS011;789;51.612;7.510;2024-03-02T01:42:51;1.60;;;1.40;;
1591;SDS011;789;51.612;7.510;2024-03-02T01:45:19;2.97;;;1.77;;
1591;SDS011;789;51.612;7.510;2024-03-02T01:47:47;2.73;;;2.00;;
1591;SDS011;789;51.612;7.510;2024-03-02T01:50:14;6.20;;;1.97;;
1591;SDS011;789;51.612;7.510;2024-03-02T01:52:41;5.23;;;1.70;;
1591;SDS011;789;51.612;7.510;2024-03-02T01:55:09;2.10;;;1.70;;
1591;SDS011;789;51.612;7.510;2024-03-02T01:57:36;1.93;;;1.70;;
1591;SDS011;789;51.612;7.510;2024-03-02T02:00:04;2.20;;;1.40;;
1591;SDS011;789;51.612;7.510;2024-03-02T02:02:34;1.90;;;1.67;;
1591;SDS011;789;51.612;7.510;2024-03-02T02:05:03;1.97;;;1.40;;
1591;SDS011;789;51.612;7.510;2024-03-02T02:07:30;2.23;;;1.37;;
1591;SDS011;789;51.612;7.510;2024-03-02T02:09:58;1.63;;;1.43;;
1591;SDS011;789;51.612;7.510;2024-03-02T02:12:24;2.17;;;1.20;;
1591;SDS011;789;51.612;7.510;2024-03-02T02:14:51;5.33;;;1.50;;
1591;SDS011;789;51.612;7.510;2024-03-02T02:17:18;4.57;;;2.00;;
1591;SDS011;789;51.612;7.510;2024-03-02T02:19:45;2.83;;;1.70;;
1591;SDS011;789;51.612;7.510;2024-03-02T02:22:14;2.20;;;1.57;;
1591;SDS011;789;51.612;7.510;2024-03-02T02:24:41;1.53;;;1.37;;
1591;SDS011;789;51.612;7.510;2024-03-02T02:27:08;2.47;;;1.40;;
1591;SDS011;789;51.612;7.510;2024-03-02T02:29:37;1.93;;;1.50;;
1591;SDS011;789;51.612;7.510;2024-03-02T02:32:03;2.00;;;1.80;;
1591;SDS011;789;51.612;7.510;2024-03-02T02:34:31;2.40;;;1.40;;
1591;SDS011;789;51.612;7.510;2024-03-02T02:36:58;1.47;;;1.30;;
1591;SDS011;789;51.612;7.510;2024-03-02T02:39:26;2.07;;;1.73;;
1591;SDS011;789;51.612;7.510;2024-03-02T02:41:53;3.27;;;1.77;;
1591;SDS011;789;51.612;7.510;2024-03-02T02:44:20;2.60;;;1.77;;
1591;SDS011;789;51.612;7.510;2024-03-02T02:46:46;4.30;;;1.63;;
1591;SDS011;789;51.612;7.510;2024-03-02T02:49:13;2.37;;;1.70;;
1591;SDS011;789;51.612;7.510;2024-03-02T02:51:43;2.00;;;1.67;;
1591;SDS011;789;51.612;7.510;2024-03-02T02:54:10;3.23;;;1.60;;
1591;SDS011;789;51.612;7.510;2024-03-02T02:56:38;3.07;;;1.20;;
1591;SDS011;789;51.612;7.510;2024-03-02T02:59:05;3.80;;;1.63;;
1591;SDS011;789;51.612;7.510;2024-03-02T03:01:31;4.07;;;1.27;;
1591;SDS011;789;51.612;7.510;2024-03-02T03:03:58;3.23;;;1.53;;
1591;SDS011;789;51.612;7.510;2024-03-02T03:06:25;4.17;;;1.40;;
1591;SDS011;789;51.612;7.510;2024-03-02T03:08:52;1.90;;;1.50;;
1591;SDS011;789;51.612;7.510;2024-03-02T03:11:19;2.40;;;1.60;;
1591;SDS011;789;51.612;7.510;2024-03-02T03:13:49;2.87;;;2.00;;
1591;SDS011;789;51.612;7.510;2024-03-02T03:16:16;2.23;;;1.57;;
1591;SDS011;789;51.612;7.510;2024-03-02T03:18:43;1.67;;;1.57;;
1591;SDS011;789;51.612;7.510;2024-03-02T03:21:09;3.07;;;1.67;;
1591;SDS011;789;51.612;7.510;2024-03-02T03:23:36;3.03;;;1.70;;
1591;SDS011;789;51.612;7.510;2024-03-02T03:26:03;1.93;;;1.30;;
1591;SDS011;789;51.612;7.510;2024-03-02T03:28:30;4.43;;;1.33;;
1591;SDS011;789;51.612;7.510;2024-03-02T03:30:58;3.17;;;1.50;;
1591;SDS011;789;51.612;7.510;2024-03-02T03:33:25;2.00;;;1.57;;
1591;SDS011;789;51.612;7.510;2024-03-02T03:35:51;2.83;;;1.50;;
1591;SDS011;789;51.612;7.510;2024-03-02T03:38:18;3.17;;;1.93;;
1591;SDS011;789;51.612;7.510;2024-03-02T03:40:45;3.93;;;1.43;;
1591;SDS011;789;51.612;7.510;2024-03-02T03:43:12;1.20;;;1.10;;
1591;SDS011;789;51.612;7.510;2024-03-02T03:45:39;1.30;;;1.20;;
1591;SDS011;789;51.612;7.510;2024-03-02T03:48:07;2.37;;;1.50;;
1591;SDS011;789;51.612;7.510;2024-03-02T03:50:34;2.53;;;1.63;;
1591;SDS011;789;51.612;7.510;2024-03-02T03:53:02;2.90;;;1.27;;
1591;SDS011;789;51.612;7.510;2024-03-02T03:55:30;1.77;;;1.40;;
1591;SDS011;789;51.612;7.510;2024-03-02T03:57:57;2.50;;;1.50;;
1591;SDS011;789;51.612;7.510;2024-03-02T04:00:24;2.50;;;1.70;;
1591;SDS011;789;51.612;7.510;2024-03-02T04:02:51;3.93;;;2.00;;
1591;SDS011;789;51.612;7.510;2024-03-02T04:05:19;4.00;;;1.70;;
1591;SDS011;789;51.612;7.510;2024-03-02T04:07:46;1.77;;;1.40;;
1591;SDS011;789;51.612;7.510;2024-03-02T04:10:12;1.60;;;1.50;;
1591;SDS011;789;51.612;7.510;2024-03-02T04:12:41;2.80;;;1.73;;
1591;SDS011;789;51.612;7.510;2024-03-02T04:15:08;1.93;;;1.47;;
1591;SDS011;789;51.612;7.510;2024-03-02T04:17:35;2.30;;;1.50;;
1591;SDS011;789;51.612;7.510;2024-03-02T04:20:02;2.37;;;1.50;;
1591;SDS011;789;51.612;7.510;2024-03-02T04:22:32;2.77;;;1.80;;
1591;SDS011;789;51.612;7.510;2024-03-02T04:25:00;3.70;;;1.70;;
1591;SDS011;789;51.612;7.510;2024-03-02T04:27:27;2.10;;;1.57;;
1591;SDS011;789;51.612;7.510;2024-03-02T04:29:53;2.60;;;1.70;;
1591;SDS011;789;51.612;7.510;2024-03-02T04:32:20;5.10;;;1.83;;
1591;SDS011;789;51.612;7.510;2024-03-02T04:34:47;6.20;;;1.60;;
1591;SDS011;789;51.612;7.510;2024-03-02T04:37:14;1.60;;;1.30;;
1591;SDS011;789;51.612;7.510;2024-03-02T04:39:42;1.60;;;1.40;;
1591;SDS011;789;51.612;7.510;2024-03-02T04:42:09;2.23;;;1.53;;
1591;SDS011;789;51.612;7.510;2024-03-02T04:44:35;2.53;;;1.60;;
1591;SDS011;789;51.612;7.510;2024-03-02T04:47:03;3.33;;;1.83;;
1591;SDS011;789;51.612;7.510;2024-03-02T04:49:30;2.37;;;1.60;;
1591;SDS011;789;51.612;7.510;2024-03-02T04:51:57;3.10;;;1.53;;
1591;SDS011;789;51.612;7.510;2024-03-02T04:54:23;3.80;;;1.73;;
1591;SDS011;789;51.612;7.510;2024-03-02T04:56:52;3.03;;;1.80;;
1591;SDS011;789;51.612;7.510;2024-03-02T04:59:18;2.60;;;2.13;;
1591;SDS011;789;51.612;7.510;2024-03-02T05:01:45;2.63;;;1.83;;
1591;SDS011;789;51.612;7.510;2024-03-02T05:04:13;3.80;;;2.13;;
1591;SDS011;789;51.612;7.510;2024-03-02T05:06:40;1.70;;;1.60;;
1591;SDS011;789;51.612;7.510;2024-03-02T05:09:07;2.33;;;1.83;;
1591;SDS011;789;51.612;7.510;2024-03-02T05:11:34;3.40;;;1.87;;
1591;SDS011;789;51.612;7.510;2024-03-02T05:14:22;2.63;;;1.77;;
1591;SDS011;789;51.612;7.510;2024-03-02T05:16:49;4.10;;;2.43;;
1591;SDS011;789;51.612;7.510;2024-03-02T05:19:15;3.83;;;2.13;;
1591;SDS011;789;51.612;7.510;2024-03-02T05:21:42;3.17;;;2.23;;
1591;SDS011;789;51.612;7.510;2024-03-02T05:24:09;3.57;;;2.50;;
1591;SDS011;789;51.612;7.510;2024-03-02T05:26:36;4.60;;;2.70;;
1591;SDS011;789;51.612;7.510;2024-03-02T05:29:03;4.70;;;3.20;;
1591;SDS011;789;51.612;7.510;2024-03-02T05:31:31;5.10;;;2.60;;
1591;SDS011;789;51.612;7.510;2024-03-02T05:33:58;4.53;;;3.00;;
1591;SDS011;789;51.612;7.510;2024-03-02T05:36:24;3.60;;;2.50;;
1591;SDS011;789;51.612;7.510;2024-03-02T05:38:51;9.50;;;3.77;;
1591;SDS011;789;51.612;7.510;2024-03-02T05:41:18;9.13;;;3.77;;
1591;SDS011;789;51.612;7.510;2024-03-02T05:43:45;6.40;;;3.80;;
1591;SDS011;789;51.612;7.510;2024-03-02T05:46:12;7.53;;;4.20;;
1591;SDS011;789;51.612;7.510;2024-03-02T05:48:40;6.37;;;3.70;;
1591;SDS011;789;51.612;7.510;2024-03-02T05:51:07;5.77;;;3.53;;
1591;SDS011;789;51.612;7.510;2024-03-02T05:53:34;5.00;;;3.13;;
1591;SDS011;789;51.612;7.510;2024-03-02T05:56:03;3.40;;;2.70;;
1591;SDS011;789;51.612;7.510;2024-03-02T05:58:30;3.93;;;2.40;;
1591;SDS011;789;51.612;7.510;2024-03-02T06:01:14;3.97;;;2.30;;
1591;SDS011;789;51.612;7.510;2024-03-02T06:03:44;4.43;;;2.40;;
1591;SDS011;789;51.612;7.510;2024-03-02T06:06:11;3.63;;;2.53;;
1591;SDS011;789;51.612;7.510;2024-03-02T06:08:39;2.43;;;2.10;;
1591;SDS011;789;51.612;7.510;2024-03-02T06:11:06;2.63;;;2.30;;
1591;SDS011;789;51.612;7.510;2024-03-02T06:13:35;3.20;;;2.40;;
1591;SDS011;789;51.612;7.510;2024-03-02T06:16:01;3.27;;;2.50;;
1591;SDS011;789;51.612;7.510;2024-03-02T06:18:28;5.03;;;2.50;;
1591;SDS011;789;51.612;7.510;2024-03-02T06:20:58;3.80;;;2.60;;
1591;SDS011;789;51.612;7.510;2024-03-02T06:23:26;2.80;;;2.50;;
1591;SDS011;789;51.612;7.510;2024-03-02T06:25:52;3.83;;;2.80;;
1591;SDS011;789;51.612;7.510;2024-03-02T06:28:19;3.10;;;2.33;;
1591;SDS011;789;51.612;7.510;2024-03-02T06:30:46;3.17;;;2.60;;
1591;SDS011;789;51.612;7.510;2024-03-02T06:33:13;2.60;;;2.30;;
1591;SDS011;789;51.612;7.510;2024-03-02T06:35:40;2.60;;;2.40;;
1591;SDS011;789;51.612;7.510;2024-03-02T06:38:08;3.03;;;2.50;;
1591;SDS011;789;51.612;7.510;2024-03-02T06:40:35;5.00;;;2.27;;
1591;SDS011;789;51.612;7.510;2024-03-02T06:43:03;3.47;;;2.60;;
1591;SDS011;789;51.612;7.510;2024-03-02T06:45:30;5.10;;;3.03;;
1591;SDS011;789;51.612;7.510;2024-03-02T06:47:58;3.00;;;2.20;;
1591;SDS011;789;51.612;7.510;2024-03-02T06:50:25;3.23;;;2.40;;
1591;SDS011;789;51.612;7.510;2024-03-02T06:52:52;4.20;;;3.27;;
1591;SDS011;789;51.612;7.510;2024-03-02T06:55:20;3.90;;;2.33;;
1591;SDS011;789;51.612;7.510;2024-03-02T06:57:48;3.57;;;2.07;;
1591;SDS011;789;51.612;7.510;2024-03-02T07:00:18;3.40;;;2.77;;
1591;SDS011;789;51.612;7.510;2024-03-02T07:02:45;3.67;;;2.77;;
1591;SDS011;789;51.612;7.510;2024-03-02T07:05:12;3.80;;;2.67;;
1591;SDS011;789;51.612;7.510;2024-03-02T07:07:39;3.50;;;2.40;;
1591;SDS011;789;51.612;7.510;2024-03-02T07:10:06;3.80;;;2.73;;
1591;SDS011;789;51.612;7.510;2024-03-02T07:12:34;5.10;;;3.10;;
1591;SDS011;789;51.612;7.510;2024-03-02T07:15:01;5.13;;;2.97;;
1591;SDS011;789;51.612;7.510;2024-03-02T07:17:46;5.33;;;3.10;;
1591;SDS011;789;51.612;7.510;2024-03-02T07:20:13;3.47;;;2.80;;
1591;SDS011;789;51.612;7.510;2024-03-02T07:22:42;3.50;;;3.20;;
1591;SDS011;789;51.612;7.510;2024-03-02T07:25:09;5.50;;;2.60;;
1591;SDS011;789;51.612;7.510;2024-03-02T07:27:37;5.00;;;3.30;;
1591;SDS011;789;51.612;7.510;2024-03-02T07:30:04;4.30;;;3.23;;
1591;SDS011;789;51.612;7.510;2024-03-02T07:32:32;5.80;;;3.90;;
1591;SDS011;789;51.612;7.510;2024-03-02T07:34:58;6.60;;;3.37;;
1591;SDS011;789;51.612;7.510;2024-03-02T07:37:26;5.10;;;3.70;;
1591;SDS011;789;51.612;7.510;2024-03-02T07:39:55;6.47;;;3.27;;
1591;SDS011;789;51.612;7.510;2024-03-02T07:42:22;3.20;;;2.83;;
1591;SDS011;789;51.612;7.510;2024-03-02T07:44:50;4.60;;;3.13;;
1591;SDS011;789;51.612;7.510;2024-03-02T07:47:17;6.80;;;2.97;;
1591;SDS011;789;51.612;7.510;2024-03-02T07:49:44;3.63;;;3.07;;
1591;SDS011;789;51.612;7.510;2024-03-02T07:52:12;4.03;;;3.00;;
1591;SDS011;789;51.612;7.510;2024-03-02T07:54:40;7.80;;;3.00;;
1591;SDS011;789;51.612;7.510;2024-03-02T07:57:07;3.07;;;2.77;;
1591;SDS011;789;51.612;7.510;2024-03-02T07:59:35;4.50;;;2.90;;
1591;SDS011;789;51.612;7.510;2024-03-02T08:02:04;3.77;;;2.83;;
1591;SDS011;789;51.612;7.510;2024-03-02T08:04:31;3.43;;;2.33;;
1591;SDS011;789;51.612;7.510;2024-03-02T08:06:57;4.57;;;2.83;;
1591;SDS011;789;51.612;7.510;2024-03-02T08:09:24;4.50;;;2.40;;
1591;SDS011;789;51.612;7.510;2024-03-02T08:11:51;2.67;;;2.40;;
1591;SDS011;789;51.612;7.510;2024-03-02T08:14:18;4.80;;;2.90;;
1591;SDS011;789;51.612;7.510;2024-03-02T08:16:45;7.43;;;2.60;;
1591;SDS011;789;51.612;7.510;2024-03-02T08:19:13;4.37;;;2.60;;
1591;SDS011;789;51.612;7.510;2024-03-02T08:21:40;3.37;;;2.50;;
1591;SDS011;789;51.612;7.510;2024-03-02T08:24:09;4.50;;;2.97;;
1591;SDS011;789;51.612;7.510;2024-03-02T08:26:36;6.30;;;3.27;;
1591;SDS011;789;51.612;7.510;2024-03-02T08:29:02;2.30;;;2.10;;
1591;SDS011;789;51.612;7.510;2024-03-02T08:31:29;6.30;;;3.37;;
1591;SDS011;789;51.612;7.510;2024-03-02T08:33:58;4.93;;;3.10;;
1591;SDS011;789;51.612;7.510;2024-03-02T08:36:27;5.37;;;3.20;;
1591;SDS011;789;51.612;7.510;2024-03-02T08:38:53;4.90;;;3.63;;
1591;SDS011;789;51.612;7.510;2024-03-02T08:41:20;5.43;;;3.70;;
1591;SDS011;789;51.612;7.510;2024-03-02T08:43:47;4.03;;;3.00;;
1591;SDS011;789;51.612;7.510;2024-03-02T08:46:14;4.10;;;2.80;;
1591;SDS011;789;51.612;7.510;2024-03-02T08:48:42;3.37;;;2.93;;
1591;SDS011;789;51.612;7.510;2024-03-02T08:51:09;4.03;;;2.87;;
1591;SDS011;789;51.612;7.510;2024-03-02T08:53:39;4.33;;;2.93;;
1591;SDS011;789;51.612;7.510;2024-03-02T08:56:06;3.70;;;2.80;;
1591;SDS011;789;51.612;7.510;2024-03-02T08:58:33;3.63;;;2.83;;
1591;SDS011;789;51.612;7.510;2024-03-02T09:00:59;4.27;;;2.80;;
1591;SDS011;789;51.612;7.510;2024-03-02T09:03:26;4.10;;;3.10;;
1591;SDS011;789;51.612;7.510;2024-03-02T09:05:53;5.13;;;3.30;;
1591;SDS011;789;51.612;7.510;2024-03-02T09:08:20;3.87;;;2.67;;
1591;SDS011;789;51.612;7.510;2024-03-02T09:10:48;5.23;;;2.33;;
1591;SDS011;789;51.612;7.510;2024-03-02T09:13:15;3.70;;;2.80;;
1591;SDS011;789;51.612;7.510;2024-03-02T09:15:42;3.60;;;2.70;;
1591;SDS011;789;51.612;7.510;2024-03-02T09:18:09;5.17;;;2.40;;
1591;SDS011;789;51.612;7.510;2024-03-02T09:20:36;3.93;;;2.90;;
1591;SDS011;789;51.612;7.510;2024-03-02T09:23:03;5.60;;;2.33;;
1591;SDS011;789;51.612;7.510;2024-03-02T09:25:30;2.70;;;2.10;;
1591;SDS011;789;51.612;7.510;2024-03-02T09:27:58;3.73;;;1.93;;
1591;SDS011;789;51.612;7.510;2024-03-02T09:30:25;3.30;;;2.07;;
1591;SDS011;789;51.612;7.510;2024-03-02T09:32:51;2.23;;;1.80;;
1591;SDS011;789;51.612;7.510;2024-03-02T09:35:18;2.50;;;1.83;;
1591;SDS011;789;51.612;7.510;2024-03-02T09:37:45;3.60;;;2.00;;
1591;SDS011;789;51.612;7.510;2024-03-02T09:40:12;3.20;;;2.10;;
1591;SDS011;789;51.612;7.510;2024-03-02T09:42:41;3.67;;;1.93;;
1591;SDS011;789;51.612;7.510;2024-03-02T09:45:10;2.70;;;1.77;;
1591;SDS011;789;51.612;7.510;2024-03-02T09:47:37;2.00;;;1.80;;
1591;SDS011;789;51.612;7.510;2024-03-02T09:50:04;5.13;;;1.63;;
1591;SDS011;789;51.612;7.510;2024-03-02T09:52:33;3.50;;;1.93;;
1591;SDS011;789;51.612;7.510;2024-03-02T09:55:02;3.43;;;2.07;;
1591;SDS011;789;51.612;7.510;2024-03-02T09:57:30;2.70;;;1.70;;
1591;SDS011;789;51.612;7.510;2024-03-02T09:59:57;2.47;;;1.50;;
1591;SDS011;789;51.612;7.510;2024-03-02T10:02:25;2.93;;;1.80;;
1591;SDS011;789;51.612;7.510;2024-03-02T10:04:52;2.37;;;1.53;;
1591;SDS011;789;51.612;7.510;2024-03-02T10:07:19;4.47;;;1.70;;
1591;SDS011;789;51.612;7.510;2024-03-02T10:09:46;3.13;;;1.97;;
1591;SDS011;789;51.612;7.510;2024-03-02T10:12:14;3.83;;;1.90;;
1591;SDS011;789;51.612;7.510;2024-03-02T10:14:42;3.40;;;2.10;;
1591;SDS011;789;51.612;7.510;2024-03-02T10:17:10;3.37;;;1.90;;
1591;SDS011;789;51.612;7.510;2024-03-02T10:19:39;3.10;;;1.87;;
1591;SDS011;789;51.612;7.510;2024-03-02T10:22:06;3.63;;;2.30;;
1591;SDS011;789;51.612;7.510;2024-03-02T10:24:35;7.73;;;2.50;;
1591;SDS011;789;51.612;7.510;2024-03-02T10:27:06;3.60;;;1.93;;
1591;SDS011;789;51.612;7.510;2024-03-02T10:29:38;1.80;;;1.50;;
1591;SDS011;789;51.612;7.510;2024-03-02T10:32:07;4.43;;;1.90;;
1591;SDS011;789;51.612;7.510;2024-03-02T10:34:36;2.27;;;1.40;;
1591;SDS011;789;51.612;7.510;2024-03-02T10:37:04;1.83;;;1.50;;
1591;SDS011;789;51.612;7.510;2024-03-02T10:39:32;1.87;;;1.23;;
1591;SDS011;789;51.612;7.510;2024-03-02T10:42:00;2.70;;;1.40;;
1591;SDS011;789;51.612;7.510;2024-03-02T10:44:29;5.83;;;1.50;;
1591;SDS011;789;51.612;7.510;2024-03-02T10:46:57;3.10;;;1.20;;
1591;SDS011;789;51.612;7.510;2024-03-02T10:49:26;2.70;;;1.50;;
1591;SDS011;789;51.612;7.510;2024-03-02T10:51:55;2.00;;;1.30;;
1591;SDS011;789;51.612;7.510;2024-03-02T10:54:23;2.30;;;1.60;;
1591;SDS011;789;51.612;7.510;2024-03-02T10:56:53;1.57;;;1.00;;
1591;SDS011;789;51.612;7.510;2024-03-02T10:59:26;1.43;;;1.17;;
1591;SDS011;789;51.612;7.510;2024-03-02T11:01:55;1.67;;;1.10;;
1591;SDS011;789;51.612;7.510;2024-03-02T11:04:24;4.53;;;1.63;;
1591;SDS011;789;51.612;7.510;2024-03-02T11:06:52;6.80;;;2.00;;
1591;SDS011;789;51.612;7.510;2024-03-02T11:09:25;2.40;;;1.73;;
1591;SDS011;789;51.612;7.510;2024-03-02T11:11:54;3.47;;;2.03;;
1591;SDS011;789;51.612;7.510;2024-03-02T11:14:27;4.53;;;1.50;;
1591;SDS011;789;51.612;7.510;2024-03-02T11:16:56;3.50;;;1.20;;
1591;SDS011;789;51.612;7.510;2024-03-02T11:19:24;1.50;;;1.23;;
1591;SDS011;789;51.612;7.510;2024-03-02T11:21:51;2.97;;;1.30;;
1591;SDS011;789;51.612;7.510;2024-03-02T11:24:29;2.60;;;1.27;;
1591;SDS011;789;51.612;7.510;2024-03-02T11:27:00;2.10;;;1.10;;
1591;SDS011;789;51.612;7.510;2024-03-02T11:32:13;1.60;;;1.30;;
1591;SDS011;789;51.612;7.510;2024-03-02T11:34:48;1.93;;;1.37;;
1591;SDS011;789;51.612;7.510;2024-03-02T11:37:16;2.20;;;1.20;;
1591;SDS011;789;51.612;7.510;2024-03-02T11:39:45;2.17;;;1.30;;
1591;SDS011;789;51.612;7.510;2024-03-02T11:42:12;3.20;;;1.10;;
1591;SDS011;789;51.612;7.510;2024-03-02T11:44:41;2.10;;;1.40;;
1591;SDS011;789;51.612;7.510;2024-03-02T11:47:10;2.47;;;1.10;;
1591;SDS011;789;51.612;7.510;2024-03-02T11:49:41;3.63;;;1.10;;
1591;SDS011;789;51.612;7.510;2024-03-02T11:52:10;6.17;;;1.90;;
1591;SDS011;789;51.612;7.510;2024-03-02T11:54:38;2.13;;;1.30;;
1591;SDS011;789;51.612;7.510;2024-03-02T11:57:13;5.23;;;1.67;;
1591;SDS011;789;51.612;7.510;2024-03-02T11:59:40;2.10;;;1.57;;
1591;SDS011;789;51.612;7.510;2024-03-02T12:02:13;3.00;;;1.40;;
1591;SDS011;789;51.612;7.510;2024-03-02T12:04:42;1.20;;;0.90;;
1591;SDS011;789;51.612;7.510;2024-03-02T12:07:09;2.10;;;1.27;;
1591;SDS011;789;51.612;7.510;2024-03-02T12:09:37;2.50;;;1.20;;
1591;SDS011;789;51.612;7.510;2024-03-02T12:12:04;2.53;;;1.50;;
1591;SDS011;789;51.612;7.510;2024-03-02T12:14:33;2.20;;;1.57;;
1591;SDS011;789;51.612;7.510;2024-03-02T12:17:02;1.20;;;1.00;;
1591;SDS011;789;51.612;7.510;2024-03-02T12:19:30;2.90;;;0.90;;
1591;SDS011;789;51.612;7.510;2024-03-02T12:21:57;2.27;;;1.20;;
1591;SDS011;789;51.612;7.510;2024-03-02T12:24:26;1.87;;;1.03;;
1591;SDS011;789;51.612;7.510;2024-03-02T12:26:53;2.10;;;1.10;;
1591;SDS011;789;51.612;7.510;2024-03-02T12:29:21;1.70;;;0.97;;
1591;SDS011;789;51.612;7.510;2024-03-02T12:31:50;2.77;;;1.17;;
1591;SDS011;789;51.612;7.510;2024-03-02T12:34:18;1.97;;;1.20;;
1591;SDS011;789;51.612;7.510;2024-03-02T12:36:46;5.20;;;1.87;;
1591;SDS011;789;51.612;7.510;2024-03-02T12:39:14;3.10;;;1.27;;
1591;SDS011;789;51.612;7.510;2024-03-02T12:41:42;3.73;;;1.10;;
1591;SDS011;789;51.612;7.510;2024-03-02T12:44:09;2.37;;;1.50;;
1591;SDS011;789;51.612;7.510;2024-03-02T12:46:36;3.37;;;1.50;;
1591;SDS011;789;51.612;7.510;2024-03-02T12:49:08;1.93;;;1.10;;
1591;SDS011;789;51.612;7.510;2024-03-02T12:51:37;2.27;;;1.30;;
1591;SDS011;789;51.612;7.510;2024-03-02T12:54:05;4.30;;;2.07;;
1591;SDS011;789;51.612;7.510;2024-03-02T12:56:32;2.10;;;1.40;;
1591;SDS011;789;51.612;7.510;2024-03-02T12:58:59;1.80;;;1.20;;
1591;SDS011;789;51.612;7.510;2024-03-02T13:01:26;3.23;;;1.27;;
1591;SDS011;789;51.612;7.510;2024-03-02T13:03:53;2.10;;;1.13;;
1591;SDS011;789;51.612;7.510;2024-03-02T13:06:23;1.70;;;1.20;;
1591;SDS011;789;51.612;7.510;2024-03-02T13:08:52;1.20;;;0.90;;
1591;SDS011;789;51.612;7.510;2024-03-02T13:11:20;1.50;;;1.20;;
1591;SDS011;789;51.612;7.510;2024-03-02T13:13:48;1.40;;;1.20;;
1591;SDS011;789;51.612;7.510;2024-03-02T13:16:15;2.53;;;1.57;;
1591;SDS011;789;51.612;7.510;2024-03-02T13:18:44;1.10;;;1.00;;
1591;SDS011;789;51.612;7.510;2024-03-02T13:21:11;1.70;;;1.00;;
1591;SDS011;789;51.612;7.510;2024-03-02T13:23:39;1.30;;;1.20;;
1591;SDS011;789;51.612;7.510;2024-03-02T13:26:06;1.30;;;1.20;;
1591;SDS011;789;51.612;7.510;2024-03-02T13:28:35;1.13;;;1.00;;
1591;SDS011;789;51.612;7.510;2024-03-02T13:31:02;1.30;;;1.10;;
1591;SDS011;789;51.612;7.510;2024-03-02T13:33:30;1.53;;;1.10;;
1591;SDS011;789;51.612;7.510;2024-03-02T13:35:58;2.10;;;0.90;;
1591;SDS011;789;51.612;7.510;2024-03-02T13:38:25;1.37;;;1.10;;
1591;SDS011;789;51.612;7.510;2024-03-02T13:40:53;1.60;;;1.17;;
1591;SDS011;789;51.612;7.510;2024-03-02T13:43:19;1.30;;;0.90;;
1591;SDS011;789;51.612;7.510;2024-03-02T13:45:47;1.80;;;1.30;;
1591;SDS011;789;51.612;7.510;2024-03-02T13:48:14;1.60;;;1.40;;
1591;SDS011;789;51.612;7.510;2024-03-02T13:50:41;1.73;;;1.40;;
1591;SDS011;789;51.612;7.510;2024-03-02T13:53:07;2.33;;;1.20;;
1591;SDS011;789;51.612;7.510;2024-03-02T13:55:34;1.60;;;1.10;;
1591;SDS011;789;51.612;7.510;2024-03-02T13:58:02;2.97;;;1.27;;
1591;SDS011;789;51.612;7.510;2024-03-02T14:00:30;1.50;;;0.90;;
1591;SDS011;789;51.612;7.510;2024-03-02T14:02:56;1.30;;;1.20;;
1591;SDS011;789;51.612;7.510;2024-03-02T14:05:24;2.50;;;1.10;;
1591;SDS011;789;51.612;7.510;2024-03-02T14:07:51;1.53;;;1.00;;
1591;SDS011;789;51.612;7.510;2024-03-02T14:10:18;1.20;;;0.80;;
1591;SDS011;789;51.612;7.510;2024-03-02T14:12:47;1.10;;;0.97;;
1591;SDS011;789;51.612;7.510;2024-03-02T14:15:15;1.20;;;1.10;;
1591;SDS011;789;51.612;7.510;2024-03-02T14:17:42;1.90;;;1.03;;
1591;SDS011;789;51.612;7.510;2024-03-02T14:20:09;1.50;;;1.20;;
1591;SDS011;789;51.612;7.510;2024-03-02T14:22:38;1.30;;;1.00;;
1591;SDS011;789;51.612;7.510;2024-03-02T14:25:05;1.80;;;1.10;;
1591;SDS011;789;51.612;7.510;2024-03-02T14:27:33;1.70;;;1.13;;
1591;SDS011;789;51.612;7.510;2024-03-02T14:30:00;2.07;;;1.00;;
1591;SDS011;789;51.612;7.510;2024-03-02T14:32:29;1.37;;;1.03;;
1591;SDS011;789;51.612;7.510;2024-03-02T14:34:55;1.80;;;0.83;;
1591;SDS011;789;51.612;7.510;2024-03-02T14:37:22;1.87;;;0.93;;
1591;SDS011;789;51.612;7.510;2024-03-02T14:39:49;2.33;;;2.13;;
1591;SDS011;789;51.612;7.510;2024-03-02T14:42:16;1.63;;;1.47;;
1591;SDS011;789;51.612;7.510;2024-03-02T14:44:43;1.23;;;1.00;;
1591;SDS011;789;51.612;7.510;2024-03-02T14:47:10;2.23;;;1.20;;
1591;SDS011;789;51.612;7.510;2024-03-02T14:49:38;1.90;;;1.30;;
1591;SDS011;789;51.612;7.510;2024-03-02T14:52:06;1.67;;;1.20;;
1591;SDS011;789;51.612;7.510;2024-03-02T14:54:34;4.30;;;1.37;;
1591;SDS011;789;51.612;7.510;2024-03-02T14:57:01;1.77;;;1.40;;
1591;SDS011;789;51.612;7.510;2024-03-02T14:59:28;4.50;;;1.47;;
1591;SDS011;789;51.612;7.510;2024-03-02T15:01:55;1.20;;;1.10;;
1591;SDS011;789;51.612;7.510;2024-03-02T15:04:22;2.83;;;1.57;;
1591;SDS011;789;51.612;7.510;2024-03-02T15:06:50;2.40;;;2.20;;
1591;SDS011;789;51.612;7.510;2024-03-02T15:09:17;2.77;;;1.60;;
1591;SDS011;789;51.612;7.510;2024-03-02T15:11:44;2.10;;;1.70;;
1591;SDS011;789;51.612;7.510;2024-03-02T15:14:12;3.10;;;2.00;;
1591;SDS011;789;51.612;7.510;2024-03-02T15:16:38;4.37;;;2.10;;
1591;SDS011;789;51.612;7.510;2024-03-02T15:19:07;2.30;;;1.90;;
1591;SDS011;789;51.612;7.510;2024-03-02T15:21:33;2.53;;;1.80;;
1591;SDS011;789;51.612;7.510;2024-03-02T15:24:01;5.80;;;1.73;;
1591;SDS011;789;51.612;7.510;2024-03-02T15:26:28;1.97;;;1.80;;
1591;SDS011;789;51.612;7.510;2024-03-02T15:28:55;1.57;;;1.40;;
1591;SDS011;789;51.612;7.510;2024-03-02T15:31:25;1.90;;;1.70;;
1591;SDS011;789;51.612;7.510;2024-03-02T15:33:52;2.20;;;1.60;;
1591;SDS011;789;51.612;7.510;2024-03-02T15:36:21;1.93;;;1.60;;